Time;durP1;ratioP1;P1;durP2;ratioP2;P2;SDS_P1;SDS_P2;PMS_P1;PMS_P2;Temp;Humidity;BMP_temperature;BMP_pressure;BME280_temperature;BME280_humidity;BME280_pressure;Samples;Min_cycle;Max_cycle;Signal;HPM_P1;HPM_P2
2021/06/13 00:02:19;;;;;;;7.25;3.60;;;15.50;95.80;;;;;;5088614;28;20032;-81
2021/06/13 00:04:45;;;;;;;7.07;3.67;;;15.40;95.80;;;;;;5067777;28;20636;-81
2021/06/13 00:07:13;;;;;;;9.30;4.00;;;15.40;95.70;;;;;;5057903;28;20426;-80
2021/06/13 00:09:38;;;;;;;7.30;3.55;;;15.40;96.40;;;;;;5055386;28;20111;-80
2021/06/13 00:12:05;;;;;;;7.60;4.03;;;15.40;97.30;;;;;;5054230;28;20028;-81
2021/06/13 00:14:33;;;;;;;7.00;3.72;;;15.30;97.20;;;;;;5046339;28;20098;-80
2021/06/13 00:16:59;;;;;;;7.28;4.00;;;15.20;98.40;;;;;;5054286;28;20116;-80
2021/06/13 00:19:25;;;;;;;9.27;3.90;;;15.20;98.40;;;;;;5054693;28;20043;-80
2021/06/13 00:21:50;;;;;;;9.40;4.00;;;15.10;99.10;;;;;;5051860;28;20098;-80
2021/06/13 00:24:16;;;;;;;6.22;3.53;;;15.10;99.30;;;;;;5056044;28;20049;-81
2021/06/13 00:26:41;;;;;;;8.35;3.88;;;15.00;99.30;;;;;;5055335;28;20039;-80
2021/06/13 00:29:07;;;;;;;10.20;4.13;;;15.00;99.50;;;;;;5054193;28;20060;-81
2021/06/13 00:31:33;;;;;;;9.02;3.70;;;15.00;99.80;;;;;;5054741;28;20032;-80
2021/06/13 00:34:01;;;;;;;11.05;4.00;;;14.90;99.00;;;;;;5066223;28;20033;-80
2021/06/13 00:36:26;;;;;;;6.47;3.58;;;14.90;99.40;;;;;;5055225;28;20044;-81
2021/06/13 00:38:52;;;;;;;6.45;3.70;;;14.80;99.70;;;;;;5055195;28;20068;-80
2021/06/13 00:41:19;;;;;;;7.88;3.95;;;14.80;99.80;;;;;;5056306;28;20052;-80
2021/06/13 00:43:45;;;;;;;8.20;4.32;;;14.70;99.90;;;;;;5053601;28;20025;-81
2021/06/13 00:46:13;;;;;;;7.97;4.07;;;14.70;99.90;;;;;;5054851;28;20029;-81
2021/06/13 00:48:38;;;;;;;8.27;4.32;;;14.70;99.90;;;;;;5059693;28;20028;-80
2021/06/13 00:51:07;;;;;;;11.50;4.35;;;14.60;99.90;;;;;;5066606;28;20095;-81
2021/06/13 00:53:33;;;;;;;8.65;4.05;;;14.60;99.90;;;;;;5042537;28;20368;-81
2021/06/13 00:55:59;;;;;;;12.50;4.10;;;14.50;99.90;;;;;;5052763;28;20033;-81
2021/06/13 00:58:25;;;;;;;9.75;4.60;;;14.50;99.90;;;;;;5054715;28;20043;-81
2021/06/13 01:00:51;;;;;;;8.30;4.00;;;14.40;99.90;;;;;;5044899;28;20029;-80
2021/06/13 01:03:17;;;;;;;6.90;4.40;;;14.40;99.90;;;;;;5057689;28;20037;-80
2021/06/13 01:05:42;;;;;;;7.13;4.10;;;14.40;99.90;;;;;;5054870;28;20025;-81
2021/06/13 01:08:39;;;;;;;10.95;4.32;;;14.30;99.90;;;;;;5054233;28;20037;-80
2021/06/13 01:11:12;;;;;;;6.93;4.18;;;14.30;99.90;;;;;;5069360;28;20032;-80
2021/06/13 01:13:50;;;;;;;8.18;4.03;;;14.20;99.90;;;;;;5066932;28;20047;-80
2021/06/13 01:17:05;;;;;;;6.53;3.72;;;14.10;99.90;;;;;;5070378;28;20033;-81
2021/06/13 01:19:52;;;;;;;7.50;3.88;;;14.10;99.90;;;;;;5053644;28;20040;-81
2021/06/13 01:22:31;;;;;;;9.27;4.13;;;14.00;99.90;;;;;;5053233;28;20051;-81
2021/06/13 01:25:27;;;;;;;9.95;4.35;;;14.00;99.90;;;;;;5049965;28;20413;-80
2021/06/13 01:28:04;;;;;;;7.68;3.90;;;13.90;99.90;;;;;;5055877;28;20031;-81
2021/06/13 01:30:31;;;;;;;9.68;4.07;;;13.90;99.90;;;;;;5060679;28;20036;-81
2021/06/13 01:33:03;;;;;;;6.90;3.72;;;13.80;99.90;;;;;;5053487;28;20484;-80
2021/06/13 01:35:29;;;;;;;7.82;4.20;;;13.80;99.90;;;;;;5054384;28;20048;-80
2021/06/13 01:37:57;;;;;;;6.85;4.20;;;13.80;99.90;;;;;;5040110;28;20059;-80
2021/06/13 01:40:28;;;;;;;6.15;4.13;;;13.80;99.90;;;;;;5056014;28;20032;-80
2021/06/13 01:42:54;;;;;;;7.80;3.78;;;13.70;99.90;;;;;;5035721;28;20029;-81
2021/06/13 01:45:22;;;;;;;11.88;4.72;;;13.60;99.90;;;;;;5057614;28;20417;-80
2021/06/13 01:47:52;;;;;;;9.68;4.15;;;13.60;99.90;;;;;;5045071;28;20028;-80
2021/06/13 01:50:18;;;;;;;7.00;4.20;;;13.60;99.90;;;;;;5041702;28;20033;-80
2021/06/13 01:52:44;;;;;;;7.78;3.92;;;13.50;99.90;;;;;;5053699;28;20446;-80
2021/06/13 01:55:12;;;;;;;7.72;4.20;;;13.50;99.90;;;;;;5071878;28;20027;-80
2021/06/13 01:57:40;;;;;;;9.30;4.75;;;13.50;99.90;;;;;;5070302;28;20059;-81
2021/06/13 02:00:09;;;;;;;7.97;4.50;;;13.40;99.90;;;;;;5045024;28;20059;-80
2021/06/13 02:02:39;;;;;;;7.57;4.40;;;13.40;99.90;;;;;;5054338;28;20036;-80
2021/06/13 02:05:05;;;;;;;7.45;4.20;;;13.30;99.90;;;;;;5052865;28;20032;-80
2021/06/13 02:07:36;;;;;;;9.65;4.65;;;13.30;99.90;;;;;;5056040;28;20094;-79
2021/06/13 02:10:04;;;;;;;8.00;4.87;;;13.30;99.90;;;;;;5068938;28;20037;-80
2021/06/13 02:12:37;;;;;;;7.40;4.93;;;13.20;99.90;;;;;;5057484;28;20288;-80
2021/06/13 02:15:03;;;;;;;8.10;4.57;;;13.20;99.90;;;;;;5057059;28;21838;-77
2021/06/13 02:17:31;;;;;;;9.45;4.97;;;13.20;99.90;;;;;;5058375;28;20029;-77
2021/06/13 02:19:57;;;;;;;7.18;4.88;;;13.20;99.90;;;;;;5067555;28;20086;-78
2021/06/13 02:22:24;;;;;;;8.02;4.93;;;13.10;99.90;;;;;;5060060;28;20489;-77
2021/06/13 02:24:52;;;;;;;9.32;4.45;;;13.10;99.90;;;;;;5057014;28;20044;-77
2021/06/13 02:27:22;;;;;;;11.60;5.32;;;13.10;99.90;;;;;;5058289;28;20031;-77
2021/06/13 02:29:48;;;;;;;10.95;5.32;;;13.10;99.90;;;;;;5072377;28;20039;-76
2021/06/13 02:32:13;;;;;;;9.05;5.20;;;13.00;99.90;;;;;;5056170;28;20037;-77
2021/06/13 02:34:41;;;;;;;10.90;5.18;;;13.00;99.90;;;;;;5059246;28;20214;-77
2021/06/13 02:37:07;;;;;;;8.65;4.70;;;13.00;99.90;;;;;;5059216;28;20041;-77
2021/06/13 02:39:33;;;;;;;8.85;4.60;;;13.00;99.90;;;;;;5032436;28;20039;-77
2021/06/13 02:41:58;;;;;;;9.93;5.03;;;13.00;99.90;;;;;;5068524;28;20029;-78
2021/06/13 02:44:24;;;;;;;9.60;5.40;;;13.00;99.90;;;;;;5056681;28;21946;-78
2021/06/13 02:46:50;;;;;;;8.68;4.72;;;13.00;99.90;;;;;;5042931;28;20116;-77
2021/06/13 02:49:15;;;;;;;9.98;5.10;;;13.00;99.90;;;;;;5057164;28;20101;-78
2021/06/13 02:51:52;;;;;;;10.75;4.85;;;13.00;99.90;;;;;;5067678;28;20597;-77
2021/06/13 02:54:20;;;;;;;7.93;4.50;;;13.00;99.90;;;;;;5056335;28;20037;-77
2021/06/13 02:56:54;;;;;;;11.75;5.03;;;13.00;99.90;;;;;;5049816;28;20948;-77
2021/06/13 02:59:20;;;;;;;9.65;4.53;;;13.00;99.90;;;;;;5057142;28;20039;-78
2021/06/13 03:01:47;;;;;;;9.38;5.10;;;12.90;99.90;;;;;;5057314;28;21896;-77
2021/06/13 03:04:19;;;;;;;9.52;4.68;;;12.90;99.90;;;;;;5055795;28;20718;-78
2021/06/13 03:06:46;;;;;;;11.68;4.95;;;12.90;99.90;;;;;;5043398;28;20044;-78
2021/06/13 03:09:16;;;;;;;10.65;5.25;;;12.90;99.90;;;;;;5071985;28;20024;-77
2021/06/13 03:11:42;;;;;;;8.82;4.53;;;12.90;99.90;;;;;;5072006;28;20024;-77
2021/06/13 03:14:07;;;;;;;11.23;5.00;;;12.90;99.90;;;;;;5067199;28;20046;-77
2021/06/13 03:16:33;;;;;;;10.52;5.25;;;12.80;99.90;;;;;;5070640;28;20024;-78
2021/06/13 03:18:59;;;;;;;10.77;4.68;;;12.80;99.90;;;;;;5049897;28;20036;-77
2021/06/13 03:21:27;;;;;;;11.65;4.97;;;12.80;99.90;;;;;;5057228;28;20040;-77
2021/06/13 03:23:56;;;;;;;8.65;4.70;;;12.80;99.90;;;;;;5038483;28;20044;-78
2021/06/13 03:26:21;;;;;;;9.50;4.65;;;12.80;99.90;;;;;;5072793;28;20042;-78
2021/06/13 03:28:47;;;;;;;9.02;4.65;;;12.80;99.90;;;;;;5060385;28;20016;-78
2021/06/13 03:31:15;;;;;;;10.65;4.80;;;12.80;99.90;;;;;;5041638;28;20524;-78
2021/06/13 03:33:40;;;;;;;8.15;4.50;;;12.80;99.90;;;;;;5071314;28;20036;-77
2021/06/13 03:36:06;;;;;;;13.27;4.95;;;12.80;99.90;;;;;;5030547;28;20040;-77
2021/06/13 03:38:35;;;;;;;8.55;5.13;;;12.80;99.90;;;;;;5067374;28;20472;-77
2021/06/13 03:41:03;;;;;;;11.70;5.10;;;12.80;99.90;;;;;;5056812;28;20037;-78
2021/06/13 03:43:28;;;;;;;10.80;4.97;;;12.70;99.90;;;;;;5056704;28;20032;-78
2021/06/13 03:45:54;;;;;;;10.38;4.40;;;12.70;99.90;;;;;;5067477;28;20036;-78
2021/06/13 03:48:25;;;;;;;8.75;5.00;;;12.70;99.90;;;;;;5059350;28;20122;-78
2021/06/13 03:50:53;;;;;;;10.18;4.50;;;12.70;99.90;;;;;;5058485;28;20028;-78
2021/06/13 03:53:23;;;;;;;6.72;4.32;;;12.70;99.90;;;;;;5043156;28;20029;-78
2021/06/13 03:55:49;;;;;;;9.63;4.75;;;12.70;99.90;;;;;;5063340;28;20075;-78
2021/06/13 03:58:15;;;;;;;9.70;5.15;;;12.70;99.90;;;;;;5054959;28;20048;-77
2021/06/13 04:00:44;;;;;;;9.77;4.50;;;12.70;99.90;;;;;;5055769;28;20032;-79
2021/06/13 04:03:16;;;;;;;7.47;4.80;;;12.70;99.90;;;;;;5058318;28;20029;-78
2021/06/13 04:05:41;;;;;;;8.30;4.85;;;12.70;99.90;;;;;;5071195;28;20028;-79
2021/06/13 04:08:08;;;;;;;9.40;5.22;;;12.70;99.90;;;;;;5072032;28;20047;-78
2021/06/13 04:10:38;;;;;;;11.50;4.85;;;12.70;99.90;;;;;;5066603;28;20033;-78
2021/06/13 04:13:04;;;;;;;9.40;4.70;;;12.60;99.90;;;;;;5054892;28;20476;-79
2021/06/13 04:15:30;;;;;;;11.00;4.57;;;12.60;99.90;;;;;;5055736;28;20039;-78
2021/06/13 04:17:56;;;;;;;8.07;4.90;;;12.60;99.90;;;;;;5057304;28;20080;-79
2021/06/13 04:20:22;;;;;;;9.63;4.85;;;12.70;99.90;;;;;;5055414;28;20032;-80
2021/06/13 04:22:49;;;;;;;9.38;5.07;;;12.70;99.90;;;;;;5042150;28;20153;-79
2021/06/13 04:25:15;;;;;;;10.23;4.70;;;12.70;99.90;;;;;;5051551;28;20032;-79
2021/06/13 04:27:43;;;;;;;10.00;4.85;;;12.70;99.90;;;;;;5041835;28;20039;-80
2021/06/13 04:30:09;;;;;;;12.77;5.00;;;12.80;99.90;;;;;;5054214;28;20068;-80
2021/06/13 04:32:35;;;;;;;11.63;5.00;;;12.80;99.90;;;;;;5051515;28;20024;-80
2021/06/13 04:35:04;;;;;;;12.27;5.10;;;12.70;99.90;;;;;;5069566;28;20140;-80
2021/06/13 04:37:29;;;;;;;9.38;4.78;;;12.80;99.90;;;;;;5067019;28;20125;-80
2021/06/13 04:39:55;;;;;;;9.75;4.90;;;12.80;99.90;;;;;;5054165;28;20075;-80
2021/06/13 04:42:21;;;;;;;13.35;4.90;;;12.80;99.90;;;;;;5054391;28;20741;-79
2021/06/13 04:44:46;;;;;;;9.43;4.50;;;12.80;99.90;;;;;;5054854;28;20043;-80
2021/06/13 04:47:15;;;;;;;10.95;5.10;;;12.90;99.90;;;;;;5056033;28;20039;-80
2021/06/13 04:49:41;;;;;;;9.70;4.70;;;12.80;99.90;;;;;;5055230;28;20923;-79
2021/06/13 04:52:09;;;;;;;12.63;4.68;;;12.90;99.90;;;;;;5056971;28;20500;-79
2021/06/13 04:54:59;;;;;;;12.43;4.90;;;12.90;99.90;;;;;;5060297;28;20036;-83
2021/06/13 04:57:28;;;;;;;10.10;4.75;;;12.90;99.90;;;;;;5052029;28;20036;-80
2021/06/13 04:59:54;;;;;;;9.45;4.72;;;12.90;99.90;;;;;;5054320;28;20024;-80
2021/06/13 05:02:26;;;;;;;10.48;5.15;;;12.90;99.90;;;;;;5054919;28;20051;-80
2021/06/13 05:04:55;;;;;;;12.13;4.82;;;13.00;99.90;;;;;;5071082;28;20032;-80
2021/06/13 05:07:22;;;;;;;11.43;5.10;;;13.00;99.90;;;;;;5054180;28;20089;-80
2021/06/13 05:09:47;;;;;;;10.63;5.22;;;13.00;99.90;;;;;;5055104;28;20032;-80
2021/06/13 05:12:13;;;;;;;9.80;4.50;;;13.10;99.90;;;;;;5056106;28;20020;-79
2021/06/13 05:14:43;;;;;;;10.48;4.63;;;13.10;99.90;;;;;;5053181;28;20063;-80
2021/06/13 05:17:09;;;;;;;13.52;5.32;;;13.10;99.90;;;;;;5048615;28;20079;-80
2021/06/13 05:19:37;;;;;;;10.45;5.40;;;13.10;99.90;;;;;;5054552;28;20040;-80
2021/06/13 05:22:09;;;;;;;10.57;5.07;;;13.20;99.90;;;;;;5056174;28;20374;-80
2021/06/13 05:24:35;;;;;;;11.88;5.63;;;13.20;99.90;;;;;;5064087;28;20048;-80
2021/06/13 05:27:03;;;;;;;10.93;4.80;;;13.20;99.90;;;;;;5071977;28;20612;-80
2021/06/13 05:29:31;;;;;;;11.55;5.03;;;13.20;99.90;;;;;;5071115;28;20024;-81
2021/06/13 05:32:00;;;;;;;12.48;4.90;;;13.30;99.90;;;;;;5068994;28;20029;-83
2021/06/13 05:34:25;;;;;;;11.43;5.35;;;13.30;99.90;;;;;;5046488;28;20094;-81
2021/06/13 05:36:51;;;;;;;12.90;5.03;;;13.30;99.90;;;;;;5053690;28;20032;-81
2021/06/13 05:39:21;;;;;;;11.32;5.20;;;13.30;99.90;;;;;;5055090;28;20587;-81
2021/06/13 05:41:47;;;;;;;10.75;5.05;;;13.30;99.90;;;;;;5057806;28;20039;-82
2021/06/13 05:44:20;;;;;;;10.40;4.90;;;13.40;99.90;;;;;;5057201;28;20029;-81
2021/06/13 05:46:46;;;;;;;14.13;5.53;;;13.40;99.90;;;;;;5059848;28;20039;-81
2021/06/13 05:49:11;;;;;;;10.60;5.38;;;13.40;99.90;;;;;;5072660;28;20028;-82
2021/06/13 05:51:37;;;;;;;10.30;5.00;;;13.40;99.90;;;;;;5075773;28;20024;-81
2021/06/13 05:54:07;;;;;;;9.10;4.63;;;13.50;99.90;;;;;;5066767;28;20477;-82
2021/06/13 05:56:35;;;;;;;11.20;5.32;;;13.50;99.90;;;;;;5043125;28;20477;-82
2021/06/13 05:59:00;;;;;;;9.25;4.90;;;13.60;99.90;;;;;;5059859;28;20215;-81
2021/06/13 06:01:29;;;;;;;9.85;4.70;;;13.60;99.90;;;;;;5064112;28;20036;-81
2021/06/13 06:03:54;;;;;;;11.65;4.97;;;13.60;99.90;;;;;;5057229;28;20809;-81
2021/06/13 06:06:20;;;;;;;11.38;5.82;;;13.60;99.90;;;;;;5056546;28;20041;-81
2021/06/13 06:08:48;;;;;;;9.82;4.88;;;13.70;99.90;;;;;;5057449;28;20101;-81
2021/06/13 06:11:16;;;;;;;12.48;5.22;;;13.70;99.90;;;;;;5064231;28;20050;-80
2021/06/13 06:13:41;;;;;;;11.50;5.32;;;13.70;99.90;;;;;;5070355;28;20350;-80
2021/06/13 06:16:09;;;;;;;11.25;5.30;;;13.70;99.90;;;;;;5062143;28;20040;-80
2021/06/13 06:18:35;;;;;;;10.48;4.95;;;13.80;99.90;;;;;;5073652;28;20041;-80
2021/06/13 06:21:00;;;;;;;10.70;5.05;;;13.80;99.90;;;;;;5078888;28;20040;-80
2021/06/13 06:23:31;;;;;;;12.10;5.85;;;13.90;99.90;;;;;;5075764;28;20055;-80
2021/06/13 06:25:58;;;;;;;12.05;5.15;;;14.00;99.90;;;;;;5061222;28;20416;-78
2021/06/13 06:28:24;;;;;;;11.40;5.05;;;14.10;99.90;;;;;;5074664;28;20110;-80
2021/06/13 06:30:50;;;;;;;12.65;5.57;;;14.10;99.90;;;;;;5072726;28;20442;-80
2021/06/13 06:33:15;;;;;;;11.52;5.30;;;14.20;99.90;;;;;;5059349;28;20039;-80
2021/06/13 06:35:41;;;;;;;8.65;5.13;;;14.30;99.90;;;;;;5078457;28;20389;-80
2021/06/13 06:38:07;;;;;;;10.45;4.70;;;14.40;99.90;;;;;;5068990;28;20044;-81
2021/06/13 06:40:35;;;;;;;11.80;5.07;;;14.50;99.90;;;;;;5076905;28;20109;-79
2021/06/13 06:43:01;;;;;;;7.70;4.72;;;14.60;99.90;;;;;;5075390;28;20051;-80
2021/06/13 06:45:31;;;;;;;11.50;5.07;;;14.60;99.90;;;;;;5068721;28;20016;-79
2021/06/13 06:47:57;;;;;;;11.35;4.65;;;14.70;99.90;;;;;;5077544;28;20544;-78
2021/06/13 06:50:22;;;;;;;10.98;5.25;;;14.80;99.90;;;;;;5074349;28;20025;-79
2021/06/13 06:52:48;;;;;;;11.32;4.97;;;14.80;99.90;;;;;;5072219;28;20025;-81
2021/06/13 06:55:15;;;;;;;10.52;4.35;;;14.80;99.90;;;;;;5068858;28;20562;-81
2021/06/13 06:57:42;;;;;;;10.45;4.80;;;14.80;99.90;;;;;;5068702;28;20055;-81
2021/06/13 07:00:08;;;;;;;13.05;5.40;;;14.90;99.90;;;;;;5032600;28;20043;-80
2021/06/13 07:02:34;;;;;;;10.25;4.90;;;14.80;99.90;;;;;;5071719;28;20135;-81
2021/06/13 07:05:00;;;;;;;11.18;4.60;;;14.80;99.90;;;;;;5079066;28;20028;-81
2021/06/13 07:07:26;;;;;;;9.77;4.63;;;14.80;99.90;;;;;;5060119;28;20036;-81
2021/06/13 07:09:52;;;;;;;10.48;5.35;;;14.80;99.90;;;;;;5057353;28;20037;-81
2021/06/13 07:12:17;;;;;;;12.27;5.03;;;14.80;99.90;;;;;;5058523;28;20032;-82
2021/06/13 07:14:43;;;;;;;9.68;4.80;;;14.80;99.90;;;;;;5070611;28;20028;-78
2021/06/13 07:17:08;;;;;;;10.23;5.10;;;14.80;99.90;;;;;;5068548;28;20374;-78
2021/06/13 07:19:34;;;;;;;11.40;4.90;;;14.80;99.90;;;;;;5055444;28;20036;-79
2021/06/13 07:22:00;;;;;;;10.77;5.18;;;14.80;99.90;;;;;;5057601;28;20060;-79
2021/06/13 07:24:25;;;;;;;12.13;5.03;;;14.90;99.90;;;;;;5072137;28;20170;-79
2021/06/13 07:26:51;;;;;;;8.68;4.00;;;14.90;99.90;;;;;;5074973;28;20339;-79
2021/06/13 07:29:16;;;;;;;10.52;5.05;;;14.90;99.90;;;;;;5058634;28;20028;-79
2021/06/13 07:31:42;;;;;;;10.30;4.45;;;15.00;99.90;;;;;;5071926;28;20028;-79
2021/06/13 07:34:08;;;;;;;10.57;4.50;;;15.10;99.90;;;;;;5056997;28;20583;-78
2021/06/13 07:36:36;;;;;;;11.18;4.80;;;15.10;99.90;;;;;;5055192;28;20096;-72
2021/06/13 07:39:03;;;;;;;10.35;4.80;;;15.30;99.90;;;;;;5054889;28;20029;-71
2021/06/13 07:41:29;;;;;;;8.75;4.60;;;15.50;99.90;;;;;;5057335;28;20024;-80
2021/06/13 07:43:57;;;;;;;10.65;4.90;;;15.70;99.90;;;;;;5056100;28;20473;-77
2021/06/13 07:46:25;;;;;;;9.43;4.38;;;16.00;99.90;;;;;;5062523;28;20036;-79
2021/06/13 07:48:53;;;;;;;8.88;4.45;;;16.30;99.90;;;;;;5056232;28;20150;-80
2021/06/13 07:51:19;;;;;;;10.90;4.45;;;16.50;99.90;;;;;;5062545;28;20038;-82
2021/06/13 07:53:44;;;;;;;9.55;4.20;;;16.80;99.90;;;;;;4707751;28;9999716;-81
2021/06/13 07:56:13;;;;;;;9.63;4.20;;;16.90;99.90;;;;;;5054783;28;20040;-82
2021/06/13 07:58:46;;;;;;;12.05;4.45;;;17.20;95.70;;;;;;5060985;28;20043;-81
2021/06/13 08:01:14;;;;;;;9.05;4.32;;;17.40;92.50;;;;;;5053765;28;20550;-80
2021/06/13 08:03:42;;;;;;;10.63;4.65;;;17.50;94.00;;;;;;5051906;28;20036;-82
2021/06/13 08:06:07;;;;;;;10.27;4.45;;;17.70;91.50;;;;;;5070263;28;20029;-82
2021/06/13 08:08:33;;;;;;;9.13;4.45;;;17.90;93.80;;;;;;5045607;28;20029;-82
2021/06/13 08:11:01;;;;;;;10.68;4.38;;;18.10;99.90;;;;;;5054255;28;20025;-84
2021/06/13 08:13:27;;;;;;;9.88;4.10;;;18.30;93.30;;;;;;5060435;28;20043;-80
2021/06/13 08:15:56;;;;;;;7.97;3.83;;;18.40;94.90;;;;;;5055331;28;20461;-82
2021/06/13 08:18:22;;;;;;;10.10;4.35;;;18.60;93.30;;;;;;5065743;28;20154;-81
2021/06/13 08:20:47;;;;;;;8.95;4.50;;;18.80;94.60;;;;;;5069417;28;20029;-79
2021/06/13 08:23:13;;;;;;;11.25;4.30;;;19.00;93.50;;;;;;5053092;28;20155;-73
2021/06/13 08:25:41;;;;;;;8.00;4.38;;;19.20;93.20;;;;;;5052392;28;20021;-74
2021/06/13 08:28:07;;;;;;;9.82;4.10;;;19.30;89.10;;;;;;5063740;28;20028;-75
2021/06/13 08:30:32;;;;;;;8.90;4.05;;;19.40;90.00;;;;;;5053514;28;20091;-75
2021/06/13 08:33:03;;;;;;;9.48;4.15;;;19.50;90.10;;;;;;5055880;28;20568;-75
2021/06/13 08:35:30;;;;;;;9.40;4.40;;;19.70;91.50;;;;;;5053867;28;20036;-77
2021/06/13 08:38:01;;;;;;;9.88;4.50;;;19.90;92.70;;;;;;4714315;28;9999763;-80
2021/06/13 08:40:27;;;;;;;9.23;4.50;;;20.00;90.00;;;;;;5070994;28;20510;-80
2021/06/13 08:42:52;;;;;;;9.73;4.50;;;20.00;82.10;;;;;;5063650;28;20055;-83
2021/06/13 08:45:20;;;;;;;10.35;4.13;;;20.00;81.70;;;;;;5066012;28;20559;-84
2021/06/13 08:47:47;;;;;;;7.80;4.10;;;20.00;83.60;;;;;;5068622;28;20527;-72
2021/06/13 08:50:15;;;;;;;7.53;4.22;;;20.10;79.60;;;;;;5054740;28;20348;-72
2021/06/13 08:52:41;;;;;;;8.52;4.07;;;20.10;80.70;;;;;;5064442;28;20025;-77
2021/06/13 08:55:07;;;;;;;10.18;4.13;;;20.20;83.70;;;;;;5051082;28;20037;-79
2021/06/13 08:57:35;;;;;;;10.38;4.15;;;20.40;85.40;;;;;;5066095;28;20032;-77
2021/06/13 09:00:00;;;;;;;10.07;3.95;;;20.40;79.10;;;;;;5066604;28;20093;-78
2021/06/13 09:02:28;;;;;;;11.15;4.20;;;20.50;80.70;;;;;;5067016;28;20119;-81
2021/06/13 09:04:56;;;;;;;9.25;4.03;;;20.50;78.40;;;;;;5063498;28;20088;-78
2021/06/13 09:07:25;;;;;;;10.20;3.97;;;20.60;85.00;;;;;;5069985;28;20036;-79
2021/06/13 09:09:54;;;;;;;10.00;4.50;;;20.60;78.80;;;;;;5068852;28;20028;-79
2021/06/13 09:12:24;;;;;;;7.45;3.70;;;20.70;84.50;;;;;;5063434;28;20397;-79
2021/06/13 09:14:54;;;;;;;10.07;3.97;;;20.80;84.40;;;;;;5072471;28;20032;-73
2021/06/13 09:17:29;;;;;;;8.45;3.78;;;20.90;79.30;;;;;;5072810;28;20036;-73
2021/06/13 09:20:20;;;;;;;10.55;5.78;;;21.00;78.40;;;;;;5070768;28;20080;-77
2021/06/13 09:23:03;;;;;;;9.47;4.00;;;21.10;83.50;;;;;;5073851;28;20068;-80
2021/06/13 09:25:31;;;;;;;10.05;4.05;;;21.00;75.10;;;;;;5067642;28;20108;-79
2021/06/13 09:28:04;;;;;;;9.27;4.00;;;21.10;81.40;;;;;;5069723;28;20032;-79
2021/06/13 09:30:34;;;;;;;7.65;3.80;;;21.30;81.70;;;;;;5069445;28;20041;-79
2021/06/13 09:33:02;;;;;;;10.40;4.20;;;21.40;81.60;;;;;;5055936;28;20017;-80
2021/06/13 09:35:31;;;;;;;9.43;3.70;;;21.40;78.80;;;;;;5067983;28;20412;-79
2021/06/13 09:38:07;;;;;;;9.30;3.70;;;21.40;72.50;;;;;;5060809;28;20059;-79
2021/06/13 09:40:32;;;;;;;10.65;4.05;;;21.50;77.20;;;;;;5067345;28;20032;-79
2021/06/13 09:43:20;;;;;;;11.13;4.30;;;21.40;75.20;;;;;;5067525;28;20081;-79
2021/06/13 09:45:54;;;;;;;9.27;4.22;;;21.40;73.20;;;;;;5071523;28;20025;-79
2021/06/13 09:48:20;;;;;;;11.25;4.20;;;21.40;73.10;;;;;;5069039;28;20481;-80
2021/06/13 09:50:54;;;;;;;7.85;3.88;;;21.40;75.40;;;;;;5068293;28;20082;-80
2021/06/13 09:53:33;;;;;;;8.07;3.70;;;21.40;71.50;;;;;;5066195;28;20187;-80
2021/06/13 09:56:10;;;;;;;9.80;3.88;;;21.30;69.50;;;;;;5072084;28;20465;-78
2021/06/13 09:58:46;;;;;;;8.35;4.00;;;21.30;73.50;;;;;;5069088;28;20028;-77
2021/06/13 10:01:11;;;;;;;8.48;4.20;;;21.20;73.40;;;;;;5076639;28;20102;-77
2021/06/13 10:03:37;;;;;;;7.03;3.83;;;21.20;72.00;;;;;;5071173;28;20625;-81
2021/06/13 10:06:07;;;;;;;9.68;3.85;;;21.30;74.30;;;;;;5066820;28;20025;-78
2021/06/13 10:08:35;;;;;;;8.90;3.88;;;21.30;75.10;;;;;;5056079;28;20032;-78
2021/06/13 10:11:02;;;;;;;7.68;3.67;;;21.20;74.10;;;;;;5074108;28;20047;-77
2021/06/13 10:13:51;;;;;;;10.60;3.72;;;21.20;71.30;;;;;;5069495;28;20121;-78
2021/06/13 10:16:30;;;;;;;8.18;4.20;;;21.40;75.10;;;;;;5070478;28;20048;-77
2021/06/13 10:19:01;;;;;;;9.75;4.20;;;21.40;74.50;;;;;;5069686;28;20029;-78
2021/06/13 10:21:35;;;;;;;8.70;4.47;;;21.50;77.30;;;;;;5064547;28;20396;-77
2021/06/13 10:24:01;;;;;;;8.45;3.72;;;21.60;74.40;;;;;;5072971;28;20066;-78
2021/06/13 10:26:30;;;;;;;8.00;4.18;;;21.60;75.10;;;;;;5075349;28;20504;-78
2021/06/13 10:28:55;;;;;;;10.32;4.30;;;21.70;76.20;;;;;;5070963;28;20032;-80
2021/06/13 10:31:21;;;;;;;8.15;3.65;;;21.90;77.50;;;;;;5073476;28;20052;-79
2021/06/13 10:33:47;;;;;;;8.40;4.15;;;21.90;73.70;;;;;;5067754;28;20465;-71
2021/06/13 10:36:13;;;;;;;10.02;4.25;;;21.90;69.50;;;;;;5071113;28;20654;-71
2021/06/13 10:38:39;;;;;;;8.88;4.25;;;22.00;73.30;;;;;;5071820;28;20508;-78
2021/06/13 10:41:06;;;;;;;8.65;3.78;;;21.90;66.60;;;;;;5060050;28;20054;-77
2021/06/13 10:43:34;;;;;;;8.80;4.22;;;21.90;72.20;;;;;;5073161;28;20032;-75
2021/06/13 10:46:07;;;;;;;8.30;3.83;;;22.00;69.50;;;;;;5060862;28;20515;-76
2021/06/13 10:48:37;;;;;;;8.50;3.90;;;22.00;71.10;;;;;;5074039;28;20034;-77
2021/06/13 10:51:34;;;;;;;7.78;3.80;;;22.20;72.30;;;;;;5057300;28;20032;-76
2021/06/13 10:54:39;;;;;;;8.93;4.03;;;22.30;71.50;;;;;;5069773;28;20024;-78
2021/06/13 10:57:08;;;;;;;8.18;4.05;;;22.20;72.60;;;;;;5038376;28;20037;-78
2021/06/13 10:59:38;;;;;;;8.35;4.00;;;22.10;66.40;;;;;;5039909;28;20036;-77
2021/06/13 11:02:14;;;;;;;8.60;4.13;;;22.10;70.40;;;;;;5037121;28;20407;-77
2021/06/13 11:05:08;;;;;;;8.10;4.18;;;22.30;70.10;;;;;;5026931;28;20064;-76
2021/06/13 11:07:38;;;;;;;8.23;3.97;;;22.20;64.20;;;;;;5024201;28;20267;-77
2021/06/13 11:12:39;;;;;;;9.20;3.90;;;22.50;74.60;;;;;;5038800;28;20033;-78
2021/06/13 11:15:06;;;;;;;8.13;3.92;;;22.60;67.60;;;;;;5036415;28;20046;-76
2021/06/13 11:17:50;;;;;;;10.02;4.13;;;22.60;69.50;;;;;;5039009;28;20064;-77
2021/06/13 11:23:04;;;;;;;9.10;4.03;;;22.70;70.10;;;;;;5037626;28;20155;-78
2021/06/13 11:25:30;;;;;;;8.30;4.22;;;22.90;72.30;;;;;;5038955;28;20035;-78
2021/06/13 11:28:22;;;;;;;7.93;4.10;;;23.10;72.50;;;;;;5046452;28;20112;-72
2021/06/13 11:30:54;;;;;;;8.45;4.55;;;23.20;61.00;;;;;;5071453;28;20023;-73
2021/06/13 11:33:34;;;;;;;7.60;4.30;;;23.10;65.70;;;;;;5069268;28;20602;-77
2021/06/13 11:36:22;;;;;;;7.72;4.05;;;23.20;68.80;;;;;;5072958;28;20025;-76
2021/06/13 11:38:50;;;;;;;10.35;4.30;;;23.00;66.00;;;;;;5069761;28;20040;-76
2021/06/13 11:41:49;;;;;;;8.90;4.03;;;23.00;67.60;;;;;;5042362;28;20024;-75
2021/06/13 11:44:20;;;;;;;6.75;3.83;;;23.20;69.70;;;;;;5067115;28;20076;-76
2021/06/13 11:46:52;;;;;;;10.27;4.30;;;23.10;63.90;;;;;;5070347;28;20032;-76
2021/06/13 11:49:18;;;;;;;;;;;23.30;67.30;;;;;;5073198;28;20067;-76
2021/06/13 11:51:55;;;;;;;8.07;3.70;;;23.30;64.20;;;;;;5069521;28;20781;-77
2021/06/13 11:54:47;;;;;;;8.38;3.97;;;23.40;66.10;;;;;;5070976;28;20625;-76
2021/06/13 11:57:13;;;;;;;8.05;4.03;;;23.60;65.30;;;;;;5068804;28;20036;-78
2021/06/13 11:59:43;;;;;;;8.40;4.03;;;23.50;65.20;;;;;;5070131;28;20040;-76
2021/06/13 12:02:11;;;;;;;7.45;4.18;;;23.70;66.30;;;;;;5067030;28;20044;-76
2021/06/13 12:04:36;;;;;;;6.82;3.95;;;23.80;65.90;;;;;;5087861;28;20035;-78
2021/06/13 12:07:03;;;;;;;10.45;4.30;;;24.00;64.30;;;;;;5070814;28;20032;-76
2021/06/13 12:09:35;;;;;;;8.25;4.10;;;24.00;65.40;;;;;;5069553;28;20032;-76
2021/06/13 12:12:01;;;;;;;8.75;4.03;;;24.20;67.90;;;;;;5066343;28;20035;-76
2021/06/13 12:14:39;;;;;;;7.60;3.58;;;24.30;66.60;;;;;;5062583;28;20024;-76
2021/06/13 12:17:17;;;;;;;9.60;4.07;;;24.40;63.60;;;;;;5070443;28;20093;-76
2021/06/13 12:19:47;;;;;;;7.55;3.85;;;24.40;63.70;;;;;;5068121;28;20043;-76
2021/06/13 12:22:34;;;;;;;8.65;3.97;;;24.60;65.60;;;;;;5075578;28;20357;-78
2021/06/13 12:27:28;;;;;;;8.70;3.88;;;24.70;65.50;;;;;;5069413;28;20029;-76
2021/06/13 12:30:13;;;;;;;7.32;3.95;;;24.70;65.20;;;;;;5069470;28;20034;-71
2021/06/13 12:32:39;;;;;;;7.53;4.00;;;24.90;66.70;;;;;;5065853;28;20020;-71
2021/06/13 12:35:15;;;;;;;8.32;3.90;;;24.80;63.70;;;;;;5066676;28;20098;-78
2021/06/13 12:37:56;;;;;;;8.27;3.95;;;25.00;61.50;;;;;;5053689;28;20023;-78
2021/06/13 12:40:22;;;;;;;7.25;3.78;;;24.90;63.60;;;;;;5081363;28;20032;-75
2021/06/13 12:42:50;;;;;;;8.45;4.20;;;24.70;60.40;;;;;;5075750;28;20050;-79
2021/06/13 12:45:17;;;;;;;7.13;3.85;;;24.70;65.50;;;;;;5069912;28;20097;-78
2021/06/13 12:47:45;;;;;;;7.82;3.85;;;24.60;63.20;;;;;;5072310;28;20038;-76
2021/06/13 12:50:39;;;;;;;8.45;4.03;;;24.80;64.80;;;;;;5069851;28;20021;-78
2021/06/13 12:53:06;;;;;;;7.20;3.78;;;24.90;64.30;;;;;;5072260;28;20037;-76
2021/06/13 12:55:42;;;;;;;8.88;4.07;;;24.70;63.20;;;;;;5074165;28;20035;-77
2021/06/13 12:58:15;;;;;;;8.73;3.78;;;24.90;62.70;;;;;;5072361;28;20054;-76
2021/06/13 13:00:41;;;;;;;7.05;3.63;;;24.90;62.00;;;;;;5055158;28;20095;-75
2021/06/13 13:03:13;;;;;;;8.50;3.70;;;25.00;62.00;;;;;;5065330;28;20699;-76